Pagrindinis puslapis
METAR-TAF:

METAR-TAF

Oro uostai :

Eskišechiras, Turkija

platuma: 39-48-36N, ilguma: 30-31-10E, Aukštis: 789 m

Dabartinis oras

Ataskaita buvo paskelbta 38 minutes, ne 05:50 UTC
Vėjas 11 kt iš Vakarų
Temperatūra 7°C
Drėgmė 53%
Slėgis 1015 hPa
Matomumas 10 km arba daugiau
nėra debesų žemiau 1500 m ir nėra kamuolinių lietaus debesų

METAR: LTBY 100550Z 26011KT CAVOK 07/M02 Q1015

Laikas: 09:28 (06:28 UTC)

Prognozė

Ataskaita buvo paskelbta 1 valandą ir 48 minutes, ne 04:40 UTC
Prognozė galioja nuo 10 metu 06 UTC su 10 metu 15 UTC
Vėjas 8 kt iš Vakarų
Matomumas 10 km arba daugiau
nėra debesų žemiau 1500 m ir nėra kamuolinių lietaus debesų
Tapsmas
nuo 10 metu 08 UTC su 10 metu 10 UTC
Vėjas 12 kt iš Šiaurės Vakarų

TAF: LTBY 100440Z 1006/1015 26008KT CAVOK BECMG 1008/1010 32012KT

Orai ataskaitas ir orų prognozės (METAR, TAF).

turimą stotys yra geltonos ir raudonos taškus žemėlapyje.

Perkelti pele per norėdami pamatyti stoties vardą.

Tada spustelėkite, norėdami matyti oro stebėjimo ir prognozės.

Norėdami pakeisti žemėlapį: spustelėkite ant žalios mygtukų su juodo kryžiaus žemyn,; žalią mygtuką su brūkšneliu, jei norite nutolinti; arba žalių rodyklių gretimoms žemėlapius.


METAR-TAF: